메인 페이지
METAR-TAF:

METAR-TAF

공항 :

야프 섬, 미크로네시아

야프 국제공항

위도: 09-29N, 경도: 138-05E, 고도: 28m

현재 날씨관측

예보는 1 시간 4분 전, 14:55시(UTC)에 발표되었습니다.
여러 방향의 바람 5kt
온도 27°C
습도 89%
기압 1011 hPa
시정: 19.3km
고도 1600ft 상공 구름 조금
고도 30000ft 상공 구름 많음

METAR: PTYA 191455Z VRB05KT 12SM FEW016 BKN300 27/25 A2984 RMK SLP107 8/101 T02700253 403050265 58003

시각: 01:59 (15:59 UTC)

예보

예보는 4 시간 19분 전, 11:40시(UTC)에 발표되었습니다.
예보 대상 시간: 19일 12시부터 20일 12시까지 (UTC)
9kt
시정: 10km
고도 1600ft 상공 구름 조금

TAF: PTYA 191140Z 1912/2012 08009KT P6SM FEW016

4,000개 이상의 공항 관측 자료 및 예보 (METAR 및 TAF 보고).

지도상에서 검색 가능한 기상관측소가 노란 점과 빨간 점으로 표시되어 있습니다.

기상관측소 명을 보려면 표시 위로 마우스를 이동하세요.

날씨 관측과 예보를 보려면 클릭하세요.

지도 변경 : 확대하려면 엑스 표시가 있는 녹색 버튼, 축소하려면 빼기 표시가 있는 녹색 버튼, 다음 페이지의 지도를 보려면 녹색 화살표를 클릭하세요.


METAR-TAF: